Mr Aries — V7ML4 — position and weather

sailwx.info

Track history (hours):
 
Tides and Currents Weather Stations Pressure Air Temp Water Temp Dewpoint Dewpoint Depression Visibility Wind Speed Wind Dir Waves Ship Positions

Mr Aries

Last reported at 2014-Dec-01 01:14 UTC. Time now 2014-Dec-19 13:39 UTC.
Position N 36°38' E 026°34'.
Warning: this ship's position is 18 days out of date.

Length 183 m; draft 10.6 m.

Type: Ship. MMSI: 538002869.

Date/timePositionNaut miles runAvg speedWind from/ knotsBaromVisibWave heightAir tempDewpointWater temp
2014-Dec-01 01:14N 36°38' E 026°34'913.9
2014-Dec-01 00:33N 36°45' E 026°26'1814.0
2014-Nov-30 23:16N 36°59' E 026°11'1013.9
2014-Nov-30 22:33N 37°08' E 026°05'1413.9
2014-Nov-30 21:33N 37°20' E 025°57'1413.6
2014-Nov-30 20:33N 37°32' E 025°48'1313.3
2014-Nov-30 19:33N 37°45' E 025°44'  
2014-Nov-28 03:33N 37°52' E 024°34'1313.0
2014-Nov-28 02:33N 37°39' E 024°31'1312.6
2014-Nov-28 01:30N 37°29' E 024°20'1212.7
2014-Nov-28 00:33N 37°20' E 024°10'4113.0
2014-Nov-27 21:27N 36°50' E 023°35'  
Track history (hours):
 
Tides and Currents Weather Stations Pressure Air Temp Water Temp Dewpoint Dewpoint Depression Visibility Wind Speed Wind Dir Waves Ship Positions

Mr Aries

Last reported at 2014-Dec-01 01:14 UTC. Time now 2014-Dec-19 13:39 UTC.
Position N 36°38' E 026°34'.
Warning: this ship's position is 18 days out of date.

Length 183 m; draft 10.6 m.

Type: Ship. MMSI: 538002869.

Date/timePositionNaut miles runAvg speedWind from/ knotsBaromVisibWave heightAir tempDewpointWater temp
2014-Dec-01 01:14N 36°38' E 026°34'913.9
2014-Dec-01 00:33N 36°45' E 026°26'1814.0
2014-Nov-30 23:16N 36°59' E 026°11'1013.9
2014-Nov-30 22:33N 37°08' E 026°05'1413.9
2014-Nov-30 21:33N 37°20' E 025°57'1413.6
2014-Nov-30 20:33N 37°32' E 025°48'1313.3
2014-Nov-30 19:33N 37°45' E 025°44'  
2014-Nov-28 03:33N 37°52' E 024°34'1313.0
2014-Nov-28 02:33N 37°39' E 024°31'1312.6
2014-Nov-28 01:30N 37°29' E 024°20'1212.7
2014-Nov-28 00:33N 37°20' E 024°10'4113.0
2014-Nov-27 21:27N 36°50' E 023°35'  

Dump ship's entire track history